sensor_id;sensor_type;location;lat;lon;timestamp;P1;P2;P0
48155;PMS5003;35568;48.104;11.782;2023-11-21T00:00:53;1;1;
48155;PMS5003;35568;48.104;11.782;2023-11-21T00:03:20;3;3;
48155;PMS5003;35568;48.104;11.782;2023-11-21T00:05:47;1;1;
48155;PMS5003;35568;48.104;11.782;2023-11-21T00:08:14;2;2;
48155;PMS5003;35568;48.104;11.782;2023-11-21T00:10:41;2;2;
48155;PMS5003;35568;48.104;11.782;2023-11-21T00:13:08;2;2;
48155;PMS5003;35568;48.104;11.782;2023-11-21T00:15:36;1;1;
48155;PMS5003;35568;48.104;11.782;2023-11-21T00:18:03;2;2;
48155;PMS5003;35568;48.104;11.782;2023-11-21T00:20:31;2;2;
48155;PMS5003;35568;48.104;11.782;2023-11-21T00:22:58;3;3;
48155;PMS5003;35568;48.104;11.782;2023-11-21T00:25:25;2;2;
48155;PMS5003;35568;48.104;11.782;2023-11-21T00:27:52;0;0;
48155;PMS5003;35568;48.104;11.782;2023-11-21T00:30:19;1;1;
48155;PMS5003;35568;48.104;11.782;2023-11-21T00:32:47;3;2;
48155;PMS5003;35568;48.104;11.782;2023-11-21T00:35:13;2;2;
48155;PMS5003;35568;48.104;11.782;2023-11-21T00:37:41;1;1;
48155;PMS5003;35568;48.104;11.782;2023-11-21T00:40:08;1;1;
48155;PMS5003;35568;48.104;11.782;2023-11-21T00:42:36;1;1;
48155;PMS5003;35568;48.104;11.782;2023-11-21T00:45:05;0;0;
48155;PMS5003;35568;48.104;11.782;2023-11-21T00:47:33;0;0;
48155;PMS5003;35568;48.104;11.782;2023-11-21T00:50:00;0;0;
48155;PMS5003;35568;48.104;11.782;2023-11-21T00:52:27;1;1;
48155;PMS5003;35568;48.104;11.782;2023-11-21T00:54:54;0;0;
48155;PMS5003;35568;48.104;11.782;2023-11-21T00:57:21;0;0;
48155;PMS5003;35568;48.104;11.782;2023-11-21T00:59:48;0;0;
48155;PMS5003;35568;48.104;11.782;2023-11-21T01:02:15;1;1;
48155;PMS5003;35568;48.104;11.782;2023-11-21T01:04:42;3;3;
48155;PMS5003;35568;48.104;11.782;2023-11-21T01:07:09;1;0;
48155;PMS5003;35568;48.104;11.782;2023-11-21T01:09:36;0;0;
48155;PMS5003;35568;48.104;11.782;2023-11-21T01:12:03;2;2;
48155;PMS5003;35568;48.104;11.782;2023-11-21T01:14:30;5;4;
48155;PMS5003;35568;48.104;11.782;2023-11-21T01:16:58;6;5;
48155;PMS5003;35568;48.104;11.782;2023-11-21T01:19:24;4;3;
48155;PMS5003;35568;48.104;11.782;2023-11-21T01:21:51;3;3;
48155;PMS5003;35568;48.104;11.782;2023-11-21T01:24:19;2;2;
48155;PMS5003;35568;48.104;11.782;2023-11-21T01:26:46;3;3;
48155;PMS5003;35568;48.104;11.782;2023-11-21T01:29:13;1;1;
48155;PMS5003;35568;48.104;11.782;2023-11-21T01:31:40;1;1;
48155;PMS5003;35568;48.104;11.782;2023-11-21T01:34:07;1;1;
48155;PMS5003;35568;48.104;11.782;2023-11-21T01:36:34;1;1;
48155;PMS5003;35568;48.104;11.782;2023-11-21T01:39:01;1;1;
48155;PMS5003;35568;48.104;11.782;2023-11-21T01:41:28;0;0;
48155;PMS5003;35568;48.104;11.782;2023-11-21T01:43:55;1;1;
48155;PMS5003;35568;48.104;11.782;2023-11-21T01:46:23;0;0;
48155;PMS5003;35568;48.104;11.782;2023-11-21T01:48:50;2;1;
48155;PMS5003;35568;48.104;11.782;2023-11-21T01:51:19;1;1;
48155;PMS5003;35568;48.104;11.782;2023-11-21T01:53:47;2;1;
48155;PMS5003;35568;48.104;11.782;2023-11-21T01:56:14;1;1;
48155;PMS5003;35568;48.104;11.782;2023-11-21T01:58:42;1;1;
48155;PMS5003;35568;48.104;11.782;2023-11-21T02:01:10;1;1;
48155;PMS5003;35568;48.104;11.782;2023-11-21T02:03:36;1;1;
48155;PMS5003;35568;48.104;11.782;2023-11-21T02:06:03;2;2;
48155;PMS5003;35568;48.104;11.782;2023-11-21T02:08:31;1;1;
48155;PMS5003;35568;48.104;11.782;2023-11-21T02:10:58;2;1;
48155;PMS5003;35568;48.104;11.782;2023-11-21T02:13:24;3;2;
48155;PMS5003;35568;48.104;11.782;2023-11-21T02:15:51;2;2;
48155;PMS5003;35568;48.104;11.782;2023-11-21T02:18:18;2;2;
48155;PMS5003;35568;48.104;11.782;2023-11-21T02:20:45;2;2;
48155;PMS5003;35568;48.104;11.782;2023-11-21T02:23:12;2;1;
48155;PMS5003;35568;48.104;11.782;2023-11-21T02:25:39;1;1;
48155;PMS5003;35568;48.104;11.782;2023-11-21T02:28:05;2;2;
48155;PMS5003;35568;48.104;11.782;2023-11-21T02:30:32;2;2;
48155;PMS5003;35568;48.104;11.782;2023-11-21T02:32:59;2;1;
48155;PMS5003;35568;48.104;11.782;2023-11-21T02:35:27;2;2;
48155;PMS5003;35568;48.104;11.782;2023-11-21T02:37:54;1;1;
48155;PMS5003;35568;48.104;11.782;2023-11-21T02:40:21;2;2;
48155;PMS5003;35568;48.104;11.782;2023-11-21T02:42:48;2;2;
48155;PMS5003;35568;48.104;11.782;2023-11-21T02:45:17;2;2;
48155;PMS5003;35568;48.104;11.782;2023-11-21T02:47:45;0;0;
48155;PMS5003;35568;48.104;11.782;2023-11-21T02:50:13;0;0;
48155;PMS5003;35568;48.104;11.782;2023-11-21T02:52:40;1;1;
48155;PMS5003;35568;48.104;11.782;2023-11-21T02:55:06;1;1;
48155;PMS5003;35568;48.104;11.782;2023-11-21T02:57:34;3;2;
48155;PMS5003;35568;48.104;11.782;2023-11-21T03:00:02;0;0;
48155;PMS5003;35568;48.104;11.782;2023-11-21T03:02:29;1;1;
48155;PMS5003;35568;48.104;11.782;2023-11-21T03:04:56;1;1;
48155;PMS5003;35568;48.104;11.782;2023-11-21T03:07:23;1;1;
48155;PMS5003;35568;48.104;11.782;2023-11-21T03:09:49;1;1;
48155;PMS5003;35568;48.104;11.782;2023-11-21T03:12:16;0;0;
48155;PMS5003;35568;48.104;11.782;2023-11-21T03:14:44;0;0;
48155;PMS5003;35568;48.104;11.782;2023-11-21T03:17:11;2;1;
48155;PMS5003;35568;48.104;11.782;2023-11-21T03:19:40;4;3;
48155;PMS5003;35568;48.104;11.782;2023-11-21T03:22:08;0;0;
48155;PMS5003;35568;48.104;11.782;2023-11-21T03:24:35;1;1;
48155;PMS5003;35568;48.104;11.782;2023-11-21T03:27:03;1;1;
48155;PMS5003;35568;48.104;11.782;2023-11-21T03:29:31;0;0;
48155;PMS5003;35568;48.104;11.782;2023-11-21T03:31:58;0;0;
48155;PMS5003;35568;48.104;11.782;2023-11-21T03:34:26;0;0;
48155;PMS5003;35568;48.104;11.782;2023-11-21T03:36:55;0;0;
48155;PMS5003;35568;48.104;11.782;2023-11-21T03:39:22;1;1;
48155;PMS5003;35568;48.104;11.782;2023-11-21T03:41:50;1;1;
48155;PMS5003;35568;48.104;11.782;2023-11-21T03:44:17;1;1;
48155;PMS5003;35568;48.104;11.782;2023-11-21T03:46:45;3;2;
48155;PMS5003;35568;48.104;11.782;2023-11-21T03:49:13;1;1;
48155;PMS5003;35568;48.104;11.782;2023-11-21T03:51:39;1;1;
48155;PMS5003;35568;48.104;11.782;2023-11-21T03:54:07;1;1;
48155;PMS5003;35568;48.104;11.782;2023-11-21T03:56:35;1;1;
48155;PMS5003;35568;48.104;11.782;2023-11-21T03:59:01;1;1;
48155;PMS5003;35568;48.104;11.782;2023-11-21T04:03:00;2;2;
48155;PMS5003;35568;48.104;11.782;2023-11-21T04:05:27;2;2;
48155;PMS5003;35568;48.104;11.782;2023-11-21T04:07:55;1;1;
48155;PMS5003;35568;48.104;11.782;2023-11-21T04:10:22;1;1;
48155;PMS5003;35568;48.104;11.782;2023-11-21T04:12:49;0;0;
48155;PMS5003;35568;48.104;11.782;2023-11-21T04:15:17;0;0;
48155;PMS5003;35568;48.104;11.782;2023-11-21T04:17:44;1;1;
48155;PMS5003;35568;48.104;11.782;2023-11-21T04:20:11;1;1;
48155;PMS5003;35568;48.104;11.782;2023-11-21T04:22:38;1;1;
48155;PMS5003;35568;48.104;11.782;2023-11-21T04:25:08;2;2;
48155;PMS5003;35568;48.104;11.782;2023-11-21T04:27:36;5;5;
48155;PMS5003;35568;48.104;11.782;2023-11-21T04:30:05;10;9;
48155;PMS5003;35568;48.104;11.782;2023-11-21T04:32:33;4;4;
48155;PMS5003;35568;48.104;11.782;2023-11-21T04:35:01;2;1;
48155;PMS5003;35568;48.104;11.782;2023-11-21T04:37:28;6;5;
48155;PMS5003;35568;48.104;11.782;2023-11-21T04:39:56;7;7;
48155;PMS5003;35568;48.104;11.782;2023-11-21T04:42:23;2;2;
48155;PMS5003;35568;48.104;11.782;2023-11-21T04:44:50;1;1;
48155;PMS5003;35568;48.104;11.782;2023-11-21T04:47:16;0;0;
48155;PMS5003;35568;48.104;11.782;2023-11-21T04:49:45;1;0;
48155;PMS5003;35568;48.104;11.782;2023-11-21T04:52:13;0;0;
48155;PMS5003;35568;48.104;11.782;2023-11-21T04:54:39;1;1;
48155;PMS5003;35568;48.104;11.782;2023-11-21T04:57:06;0;0;
48155;PMS5003;35568;48.104;11.782;2023-11-21T04:59:34;1;1;
48155;PMS5003;35568;48.104;11.782;2023-11-21T05:02:01;1;1;
48155;PMS5003;35568;48.104;11.782;2023-11-21T05:04:28;0;0;
48155;PMS5003;35568;48.104;11.782;2023-11-21T05:06:55;0;0;
48155;PMS5003;35568;48.104;11.782;2023-11-21T05:09:22;1;1;
48155;PMS5003;35568;48.104;11.782;2023-11-21T05:11:49;0;0;
48155;PMS5003;35568;48.104;11.782;2023-11-21T05:14:16;0;0;
48155;PMS5003;35568;48.104;11.782;2023-11-21T05:16:43;0;0;
48155;PMS5003;35568;48.104;11.782;2023-11-21T05:19:11;0;0;
48155;PMS5003;35568;48.104;11.782;2023-11-21T05:21:39;0;0;
48155;PMS5003;35568;48.104;11.782;2023-11-21T05:24:06;0;0;
48155;PMS5003;35568;48.104;11.782;2023-11-21T05:26:34;0;0;
48155;PMS5003;35568;48.104;11.782;2023-11-21T05:29:02;0;0;
48155;PMS5003;35568;48.104;11.782;2023-11-21T05:31:29;0;0;
48155;PMS5003;35568;48.104;11.782;2023-11-21T05:33:56;0;0;
48155;PMS5003;35568;48.104;11.782;2023-11-21T05:36:23;0;0;
48155;PMS5003;35568;48.104;11.782;2023-11-21T05:38:51;1;1;
48155;PMS5003;35568;48.104;11.782;2023-11-21T05:41:18;1;1;
48155;PMS5003;35568;48.104;11.782;2023-11-21T05:43:46;0;0;
48155;PMS5003;35568;48.104;11.782;2023-11-21T05:46:13;1;1;
48155;PMS5003;35568;48.104;11.782;2023-11-21T05:48:40;1;1;
48155;PMS5003;35568;48.104;11.782;2023-11-21T05:51:06;1;1;
48155;PMS5003;35568;48.104;11.782;2023-11-21T05:53:34;1;1;
48155;PMS5003;35568;48.104;11.782;2023-11-21T05:56:01;0;0;
48155;PMS5003;35568;48.104;11.782;2023-11-21T05:58:29;0;0;
48155;PMS5003;35568;48.104;11.782;2023-11-21T06:00:56;0;0;
48155;PMS5003;35568;48.104;11.782;2023-11-21T06:03:24;1;1;
48155;PMS5003;35568;48.104;11.782;2023-11-21T06:05:52;0;0;
48155;PMS5003;35568;48.104;11.782;2023-11-21T06:08:19;1;0;
48155;PMS5003;35568;48.104;11.782;2023-11-21T06:10:46;0;0;
48155;PMS5003;35568;48.104;11.782;2023-11-21T06:13:13;0;0;
48155;PMS5003;35568;48.104;11.782;2023-11-21T06:15:40;0;0;
48155;PMS5003;35568;48.104;11.782;2023-11-21T06:18:06;0;0;
48155;PMS5003;35568;48.104;11.782;2023-11-21T06:20:33;1;0;
48155;PMS5003;35568;48.104;11.782;2023-11-21T06:23:01;1;1;
48155;PMS5003;35568;48.104;11.782;2023-11-21T06:25:28;1;1;
48155;PMS5003;35568;48.104;11.782;2023-11-21T06:27:55;1;1;
48155;PMS5003;35568;48.104;11.782;2023-11-21T06:30:22;0;0;
48155;PMS5003;35568;48.104;11.782;2023-11-21T06:32:49;0;0;
48155;PMS5003;35568;48.104;11.782;2023-11-21T06:35:16;0;0;
48155;PMS5003;35568;48.104;11.782;2023-11-21T06:37:43;0;0;
48155;PMS5003;35568;48.104;11.782;2023-11-21T06:40:10;1;1;
48155;PMS5003;35568;48.104;11.782;2023-11-21T06:42:38;1;0;
48155;PMS5003;35568;48.104;11.782;2023-11-21T06:45:06;1;1;
48155;PMS5003;35568;48.104;11.782;2023-11-21T06:47:33;1;1;
48155;PMS5003;35568;48.104;11.782;2023-11-21T06:50:00;1;1;
48155;PMS5003;35568;48.104;11.782;2023-11-21T06:52:27;1;1;
48155;PMS5003;35568;48.104;11.782;2023-11-21T06:54:54;0;0;
48155;PMS5003;35568;48.104;11.782;2023-11-21T06:57:22;0;0;
48155;PMS5003;35568;48.104;11.782;2023-11-21T06:59:50;0;0;
48155;PMS5003;35568;48.104;11.782;2023-11-21T07:02:17;1;1;
48155;PMS5003;35568;48.104;11.782;2023-11-21T07:04:45;2;2;
48155;PMS5003;35568;48.104;11.782;2023-11-21T07:07:12;2;1;
48155;PMS5003;35568;48.104;11.782;2023-11-21T07:09:39;1;1;
48155;PMS5003;35568;48.104;11.782;2023-11-21T07:12:06;0;0;
48155;PMS5003;35568;48.104;11.782;2023-11-21T07:14:34;0;0;
48155;PMS5003;35568;48.104;11.782;2023-11-21T07:17:01;1;1;
48155;PMS5003;35568;48.104;11.782;2023-11-21T07:19:29;1;1;
48155;PMS5003;35568;48.104;11.782;2023-11-21T07:21:56;1;1;
48155;PMS5003;35568;48.104;11.782;2023-11-21T07:24:23;0;0;
48155;PMS5003;35568;48.104;11.782;2023-11-21T07:26:49;1;1;
48155;PMS5003;35568;48.104;11.782;2023-11-21T07:29:16;0;0;
48155;PMS5003;35568;48.104;11.782;2023-11-21T07:31:43;1;1;
48155;PMS5003;35568;48.104;11.782;2023-11-21T07:34:10;1;1;
48155;PMS5003;35568;48.104;11.782;2023-11-21T07:36:37;1;1;
48155;PMS5003;35568;48.104;11.782;2023-11-21T07:39:03;0;0;
48155;PMS5003;35568;48.104;11.782;2023-11-21T07:41:30;1;1;
48155;PMS5003;35568;48.104;11.782;2023-11-21T07:43:57;0;0;
48155;PMS5003;35568;48.104;11.782;2023-11-21T07:46:24;0;0;
48155;PMS5003;35568;48.104;11.782;2023-11-21T07:48:52;0;0;
48155;PMS5003;35568;48.104;11.782;2023-11-21T07:51:18;0;0;
48155;PMS5003;35568;48.104;11.782;2023-11-21T07:53:45;0;0;
48155;PMS5003;35568;48.104;11.782;2023-11-21T07:56:12;0;0;
48155;PMS5003;35568;48.104;11.782;2023-11-21T07:58:39;3;1;
48155;PMS5003;35568;48.104;11.782;2023-11-21T08:01:06;1;1;
48155;PMS5003;35568;48.104;11.782;2023-11-21T08:03:33;0;0;
48155;PMS5003;35568;48.104;11.782;2023-11-21T08:06:00;0;0;
48155;PMS5003;35568;48.104;11.782;2023-11-21T08:08:28;1;1;
48155;PMS5003;35568;48.104;11.782;2023-11-21T08:10:55;1;1;
48155;PMS5003;35568;48.104;11.782;2023-11-21T08:13:22;0;0;
48155;PMS5003;35568;48.104;11.782;2023-11-21T08:15:50;0;0;
48155;PMS5003;35568;48.104;11.782;2023-11-21T08:18:20;1;1;
48155;PMS5003;35568;48.104;11.782;2023-11-21T08:20:48;0;0;
48155;PMS5003;35568;48.104;11.782;2023-11-21T08:23:15;0;0;
48155;PMS5003;35568;48.104;11.782;2023-11-21T08:25:43;0;0;
48155;PMS5003;35568;48.104;11.782;2023-11-21T08:28:11;0;0;
48155;PMS5003;35568;48.104;11.782;2023-11-21T08:30:39;0;0;
48155;PMS5003;35568;48.104;11.782;2023-11-21T08:33:06;0;0;
48155;PMS5003;35568;48.104;11.782;2023-11-21T08:35:34;0;0;
48155;PMS5003;35568;48.104;11.782;2023-11-21T08:38:02;0;0;
48155;PMS5003;35568;48.104;11.782;2023-11-21T08:40:29;0;0;
48155;PMS5003;35568;48.104;11.782;2023-11-21T08:42:57;0;0;
48155;PMS5003;35568;48.104;11.782;2023-11-21T08:45:24;0;0;
48155;PMS5003;35568;48.104;11.782;2023-11-21T08:47:51;0;0;
48155;PMS5003;35568;48.104;11.782;2023-11-21T08:50:19;0;0;
48155;PMS5003;35568;48.104;11.782;2023-11-21T08:52:46;0;0;
48155;PMS5003;35568;48.104;11.782;2023-11-21T08:55:13;0;0;
48155;PMS5003;35568;48.104;11.782;2023-11-21T08:57:43;0;0;
48155;PMS5003;35568;48.104;11.782;2023-11-21T09:00:11;0;0;
48155;PMS5003;35568;48.104;11.782;2023-11-21T09:02:38;0;0;
48155;PMS5003;35568;48.104;11.782;2023-11-21T09:05:06;0;0;
48155;PMS5003;35568;48.104;11.782;2023-11-21T09:07:33;0;0;
48155;PMS5003;35568;48.104;11.782;2023-11-21T09:10:01;0;0;
48155;PMS5003;35568;48.104;11.782;2023-11-21T09:12:29;0;0;
48155;PMS5003;35568;48.104;11.782;2023-11-21T09:14:55;0;0;
48155;PMS5003;35568;48.104;11.782;2023-11-21T09:17:22;0;0;
48155;PMS5003;35568;48.104;11.782;2023-11-21T09:19:50;0;0;
48155;PMS5003;35568;48.104;11.782;2023-11-21T09:22:17;0;0;
48155;PMS5003;35568;48.104;11.782;2023-11-21T09:24:45;0;0;
48155;PMS5003;35568;48.104;11.782;2023-11-21T09:27:13;0;0;
48155;PMS5003;35568;48.104;11.782;2023-11-21T09:29:41;0;0;
48155;PMS5003;35568;48.104;11.782;2023-11-21T09:32:08;2;2;
48155;PMS5003;35568;48.104;11.782;2023-11-21T09:34:37;1;1;
48155;PMS5003;35568;48.104;11.782;2023-11-21T09:37:05;0;0;
48155;PMS5003;35568;48.104;11.782;2023-11-21T09:39:32;0;0;
48155;PMS5003;35568;48.104;11.782;2023-11-21T09:42:03;0;0;
48155;PMS5003;35568;48.104;11.782;2023-11-21T09:44:40;1;1;
48155;PMS5003;35568;48.104;11.782;2023-11-21T09:47:14;0;0;
48155;PMS5003;35568;48.104;11.782;2023-11-21T09:49:42;1;1;
48155;PMS5003;35568;48.104;11.782;2023-11-21T09:52:14;1;0;
48155;PMS5003;35568;48.104;11.782;2023-11-21T09:54:49;0;0;
48155;PMS5003;35568;48.104;11.782;2023-11-21T09:57:18;1;1;
48155;PMS5003;35568;48.104;11.782;2023-11-21T09:59:46;0;0;
48155;PMS5003;35568;48.104;11.782;2023-11-21T10:02:17;0;0;
48155;PMS5003;35568;48.104;11.782;2023-11-21T10:04:44;0;0;
48155;PMS5003;35568;48.104;11.782;2023-11-21T10:07:12;0;0;
48155;PMS5003;35568;48.104;11.782;2023-11-21T10:09:44;0;0;
48155;PMS5003;35568;48.104;11.782;2023-11-21T10:12:11;0;0;
48155;PMS5003;35568;48.104;11.782;2023-11-21T10:14:41;0;0;
48155;PMS5003;35568;48.104;11.782;2023-11-21T10:17:09;0;0;
48155;PMS5003;35568;48.104;11.782;2023-11-21T10:19:39;0;0;
48155;PMS5003;35568;48.104;11.782;2023-11-21T10:22:06;0;0;
48155;PMS5003;35568;48.104;11.782;2023-11-21T10:24:34;0;0;
48155;PMS5003;35568;48.104;11.782;2023-11-21T10:27:04;0;0;
48155;PMS5003;35568;48.104;11.782;2023-11-21T10:29:31;0;0;
48155;PMS5003;35568;48.104;11.782;2023-11-21T10:31:59;0;0;
48155;PMS5003;35568;48.104;11.782;2023-11-21T10:34:28;1;1;
48155;PMS5003;35568;48.104;11.782;2023-11-21T10:36:56;0;0;
48155;PMS5003;35568;48.104;11.782;2023-11-21T10:39:24;0;0;
48155;PMS5003;35568;48.104;11.782;2023-11-21T10:41:51;0;0;
48155;PMS5003;35568;48.104;11.782;2023-11-21T10:44:19;0;0;
48155;PMS5003;35568;48.104;11.782;2023-11-21T10:46:47;0;0;
48155;PMS5003;35568;48.104;11.782;2023-11-21T10:49:16;1;1;
48155;PMS5003;35568;48.104;11.782;2023-11-21T10:51:44;0;0;
48155;PMS5003;35568;48.104;11.782;2023-11-21T10:54:11;1;1;
48155;PMS5003;35568;48.104;11.782;2023-11-21T10:56:39;0;0;
48155;PMS5003;35568;48.104;11.782;2023-11-21T10:59:07;0;0;
48155;PMS5003;35568;48.104;11.782;2023-11-21T11:01:36;1;1;
48155;PMS5003;35568;48.104;11.782;2023-11-21T11:04:04;2;1;
48155;PMS5003;35568;48.104;11.782;2023-11-21T11:06:34;3;3;
48155;PMS5003;35568;48.104;11.782;2023-11-21T11:09:02;1;1;
48155;PMS5003;35568;48.104;11.782;2023-11-21T11:11:30;2;2;
48155;PMS5003;35568;48.104;11.782;2023-11-21T11:13:57;1;1;
48155;PMS5003;35568;48.104;11.782;2023-11-21T11:16:26;3;1;
48155;PMS5003;35568;48.104;11.782;2023-11-21T11:18:54;0;0;
48155;PMS5003;35568;48.104;11.782;2023-11-21T11:21:25;1;1;
48155;PMS5003;35568;48.104;11.782;2023-11-21T11:24:09;0;0;
48155;PMS5003;35568;48.104;11.782;2023-11-21T11:26:47;1;1;
48155;PMS5003;35568;48.104;11.782;2023-11-21T11:29:25;0;0;
48155;PMS5003;35568;48.104;11.782;2023-11-21T11:32:03;0;0;
48155;PMS5003;35568;48.104;11.782;2023-11-21T11:34:41;2;2;
48155;PMS5003;35568;48.104;11.782;2023-11-21T11:37:14;1;1;
48155;PMS5003;35568;48.104;11.782;2023-11-21T11:39:42;1;1;
48155;PMS5003;35568;48.104;11.782;2023-11-21T11:42:12;0;0;
48155;PMS5003;35568;48.104;11.782;2023-11-21T11:44:48;0;0;
48155;PMS5003;35568;48.104;11.782;2023-11-21T11:47:20;0;0;
48155;PMS5003;35568;48.104;11.782;2023-11-21T11:49:58;1;1;
48155;PMS5003;35568;48.104;11.782;2023-11-21T11:52:35;0;0;
48155;PMS5003;35568;48.104;11.782;2023-11-21T11:55:05;0;0;
48155;PMS5003;35568;48.104;11.782;2023-11-21T11:57:34;0;0;
48155;PMS5003;35568;48.104;11.782;2023-11-21T12:00:11;1;1;
48155;PMS5003;35568;48.104;11.782;2023-11-21T12:02:40;1;1;
48155;PMS5003;35568;48.104;11.782;2023-11-21T12:05:09;1;1;
48155;PMS5003;35568;48.104;11.782;2023-11-21T12:07:45;0;0;
48155;PMS5003;35568;48.104;11.782;2023-11-21T12:10:15;0;0;
48155;PMS5003;35568;48.104;11.782;2023-11-21T12:12:45;0;0;
48155;PMS5003;35568;48.104;11.782;2023-11-21T12:15:13;0;0;
48155;PMS5003;35568;48.104;11.782;2023-11-21T12:17:41;1;1;
48155;PMS5003;35568;48.104;11.782;2023-11-21T12:20:09;1;0;
48155;PMS5003;35568;48.104;11.782;2023-11-21T12:22:37;0;0;
48155;PMS5003;35568;48.104;11.782;2023-11-21T12:25:05;0;0;
48155;PMS5003;35568;48.104;11.782;2023-11-21T12:27:33;1;1;
48155;PMS5003;35568;48.104;11.782;2023-11-21T12:30:01;1;1;
48155;PMS5003;35568;48.104;11.782;2023-11-21T12:32:28;1;1;
48155;PMS5003;35568;48.104;11.782;2023-11-21T12:34:55;0;0;
48155;PMS5003;35568;48.104;11.782;2023-11-21T12:37:22;2;0;
48155;PMS5003;35568;48.104;11.782;2023-11-21T12:39:56;0;0;
48155;PMS5003;35568;48.104;11.782;2023-11-21T12:42:23;0;0;
48155;PMS5003;35568;48.104;11.782;2023-11-21T12:45:06;1;1;
48155;PMS5003;35568;48.104;11.782;2023-11-21T12:47:35;0;0;
48155;PMS5003;35568;48.104;11.782;2023-11-21T12:50:02;1;1;
48155;PMS5003;35568;48.104;11.782;2023-11-21T12:52:30;1;1;
48155;PMS5003;35568;48.104;11.782;2023-11-21T12:54:57;0;0;
48155;PMS5003;35568;48.104;11.782;2023-11-21T12:57:25;0;0;
48155;PMS5003;35568;48.104;11.782;2023-11-21T12:59:53;0;0;
48155;PMS5003;35568;48.104;11.782;2023-11-21T13:02:25;0;0;
48155;PMS5003;35568;48.104;11.782;2023-11-21T13:04:52;1;1;
48155;PMS5003;35568;48.104;11.782;2023-11-21T13:07:20;1;1;
48155;PMS5003;35568;48.104;11.782;2023-11-21T13:09:47;0;0;
48155;PMS5003;35568;48.104;11.782;2023-11-21T13:12:13;1;1;
48155;PMS5003;35568;48.104;11.782;2023-11-21T13:14:41;0;0;
48155;PMS5003;35568;48.104;11.782;2023-11-21T13:17:08;0;0;
48155;PMS5003;35568;48.104;11.782;2023-11-21T13:19:36;1;1;
48155;PMS5003;35568;48.104;11.782;2023-11-21T13:22:03;0;0;
48155;PMS5003;35568;48.104;11.782;2023-11-21T13:24:31;0;0;
48155;PMS5003;35568;48.104;11.782;2023-11-21T13:26:58;0;0;
48155;PMS5003;35568;48.104;11.782;2023-11-21T13:29:25;0;0;
48155;PMS5003;35568;48.104;11.782;2023-11-21T13:31:53;0;0;
48155;PMS5003;35568;48.104;11.782;2023-11-21T13:34:19;1;1;
48155;PMS5003;35568;48.104;11.782;2023-11-21T13:36:46;0;0;
48155;PMS5003;35568;48.104;11.782;2023-11-21T13:39:14;0;0;
48155;PMS5003;35568;48.104;11.782;2023-11-21T13:41:41;0;0;
48155;PMS5003;35568;48.104;11.782;2023-11-21T13:44:07;0;0;
48155;PMS5003;35568;48.104;11.782;2023-11-21T13:46:34;0;0;
48155;PMS5003;35568;48.104;11.782;2023-11-21T13:49:02;1;0;
48155;PMS5003;35568;48.104;11.782;2023-11-21T13:51:29;0;0;
48155;PMS5003;35568;48.104;11.782;2023-11-21T13:53:57;0;0;
48155;PMS5003;35568;48.104;11.782;2023-11-21T13:56:25;0;0;
48155;PMS5003;35568;48.104;11.782;2023-11-21T13:58:52;0;0;
48155;PMS5003;35568;48.104;11.782;2023-11-21T14:01:19;1;0;
48155;PMS5003;35568;48.104;11.782;2023-11-21T14:03:47;0;0;
48155;PMS5003;35568;48.104;11.782;2023-11-21T14:06:13;0;0;
48155;PMS5003;35568;48.104;11.782;2023-11-21T14:08:40;0;0;
48155;PMS5003;35568;48.104;11.782;2023-11-21T14:11:07;0;0;
48155;PMS5003;35568;48.104;11.782;2023-11-21T14:13:35;0;0;
48155;PMS5003;35568;48.104;11.782;2023-11-21T14:16:02;1;1;
48155;PMS5003;35568;48.104;11.782;2023-11-21T14:18:29;0;0;
48155;PMS5003;35568;48.104;11.782;2023-11-21T14:20:57;1;1;
48155;PMS5003;35568;48.104;11.782;2023-11-21T14:23:25;0;0;
48155;PMS5003;35568;48.104;11.782;2023-11-21T14:25:52;0;0;
48155;PMS5003;35568;48.104;11.782;2023-11-21T14:28:20;0;0;
48155;PMS5003;35568;48.104;11.782;2023-11-21T14:30:47;1;1;
48155;PMS5003;35568;48.104;11.782;2023-11-21T14:33:14;0;0;
48155;PMS5003;35568;48.104;11.782;2023-11-21T14:35:42;0;0;
48155;PMS5003;35568;48.104;11.782;2023-11-21T14:38:10;0;0;
48155;PMS5003;35568;48.104;11.782;2023-11-21T14:40:38;0;0;
48155;PMS5003;35568;48.104;11.782;2023-11-21T14:43:06;0;0;
48155;PMS5003;35568;48.104;11.782;2023-11-21T14:45:33;1;1;
48155;PMS5003;35568;48.104;11.782;2023-11-21T14:48:01;1;1;
48155;PMS5003;35568;48.104;11.782;2023-11-21T14:50:29;2;1;
48155;PMS5003;35568;48.104;11.782;2023-11-21T14:52:56;0;0;
48155;PMS5003;35568;48.104;11.782;2023-11-21T14:55:23;1;1;
48155;PMS5003;35568;48.104;11.782;2023-11-21T14:57:51;1;1;
48155;PMS5003;35568;48.104;11.782;2023-11-21T15:00:18;1;1;
48155;PMS5003;35568;48.104;11.782;2023-11-21T15:02:47;2;2;
48155;PMS5003;35568;48.104;11.782;2023-11-21T15:05:14;1;1;
48155;PMS5003;35568;48.104;11.782;2023-11-21T15:07:42;2;2;
48155;PMS5003;35568;48.104;11.782;2023-11-21T15:10:10;2;2;
48155;PMS5003;35568;48.104;11.782;2023-11-21T15:12:37;1;1;
48155;PMS5003;35568;48.104;11.782;2023-11-21T15:15:04;0;0;
48155;PMS5003;35568;48.104;11.782;2023-11-21T15:17:32;0;0;
48155;PMS5003;35568;48.104;11.782;2023-11-21T15:20:00;0;0;
48155;PMS5003;35568;48.104;11.782;2023-11-21T15:22:27;1;1;
48155;PMS5003;35568;48.104;11.782;2023-11-21T15:24:55;0;0;
48155;PMS5003;35568;48.104;11.782;2023-11-21T15:27:23;1;1;
48155;PMS5003;35568;48.104;11.782;2023-11-21T15:29:49;3;3;
48155;PMS5003;35568;48.104;11.782;2023-11-21T15:32:16;3;3;
48155;PMS5003;35568;48.104;11.782;2023-11-21T15:34:43;4;4;
48155;PMS5003;35568;48.104;11.782;2023-11-21T15:37:11;3;3;
48155;PMS5003;35568;48.104;11.782;2023-11-21T15:39:38;5;5;
48155;PMS5003;35568;48.104;11.782;2023-11-21T15:42:05;6;5;
48155;PMS5003;35568;48.104;11.782;2023-11-21T15:44:34;5;5;
48155;PMS5003;35568;48.104;11.782;2023-11-21T15:47:01;5;5;
48155;PMS5003;35568;48.104;11.782;2023-11-21T15:49:29;4;4;
48155;PMS5003;35568;48.104;11.782;2023-11-21T15:51:57;2;2;
48155;PMS5003;35568;48.104;11.782;2023-11-21T15:54:25;0;0;
48155;PMS5003;35568;48.104;11.782;2023-11-21T15:56:53;3;3;
48155;PMS5003;35568;48.104;11.782;2023-11-21T15:59:21;2;2;
48155;PMS5003;35568;48.104;11.782;2023-11-21T16:01:49;2;2;
48155;PMS5003;35568;48.104;11.782;2023-11-21T16:04:16;2;2;
48155;PMS5003;35568;48.104;11.782;2023-11-21T16:06:43;3;3;
48155;PMS5003;35568;48.104;11.782;2023-11-21T16:09:11;2;2;
48155;PMS5003;35568;48.104;11.782;2023-11-21T16:11:38;3;3;
48155;PMS5003;35568;48.104;11.782;2023-11-21T16:14:04;2;2;
48155;PMS5003;35568;48.104;11.782;2023-11-21T16:16:32;3;2;
48155;PMS5003;35568;48.104;11.782;2023-11-21T16:19:00;2;2;
48155;PMS5003;35568;48.104;11.782;2023-11-21T16:21:27;6;5;
48155;PMS5003;35568;48.104;11.782;2023-11-21T16:23:54;4;3;
48155;PMS5003;35568;48.104;11.782;2023-11-21T16:26:21;3;3;
48155;PMS5003;35568;48.104;11.782;2023-11-21T16:28:49;4;3;
48155;PMS5003;35568;48.104;11.782;2023-11-21T16:31:21;10;9;
48155;PMS5003;35568;48.104;11.782;2023-11-21T16:33:49;9;9;
48155;PMS5003;35568;48.104;11.782;2023-11-21T16:36:16;11;11;
48155;PMS5003;35568;48.104;11.782;2023-11-21T16:38:43;10;10;